sensor_id;sensor_type;location;lat;lon;timestamp;pressure;altitude;pressure_sealevel;temperature;humidity
39265;BME280;42646;51.910;7.724;2023-04-01T00:00:33;98702.94;;;9.92;100.00
39265;BME280;42646;51.910;7.724;2023-04-01T00:03:00;98704.88;;;9.98;100.00
39265;BME280;42646;51.910;7.724;2023-04-01T00:05:28;98704.13;;;9.89;100.00
39265;BME280;42646;51.910;7.724;2023-04-01T00:07:57;98705.59;;;9.92;100.00
39265;BME280;42646;51.910;7.724;2023-04-01T00:10:24;98703.56;;;9.94;100.00
39265;BME280;42646;51.910;7.724;2023-04-01T00:12:53;98701.03;;;9.85;100.00
39265;BME280;42646;51.910;7.724;2023-04-01T00:15:22;98694.22;;;9.83;100.00
39265;BME280;42646;51.910;7.724;2023-04-01T00:17:49;98701.03;;;9.85;100.00
39265;BME280;42646;51.910;7.724;2023-04-01T00:20:17;98704.69;;;9.84;100.00
39265;BME280;42646;51.910;7.724;2023-04-01T00:22:45;98699.91;;;9.80;100.00
39265;BME280;42646;51.910;7.724;2023-04-01T00:25:13;98700.91;;;9.79;100.00
39265;BME280;42646;51.910;7.724;2023-04-01T00:27:42;98694.94;;;9.77;100.00
39265;BME280;42646;51.910;7.724;2023-04-01T00:30:11;98698.25;;;9.79;100.00
39265;BME280;42646;51.910;7.724;2023-04-01T00:32:39;98698.81;;;9.74;100.00
39265;BME280;42646;51.910;7.724;2023-04-01T00:35:07;98698.16;;;9.87;100.00
39265;BME280;42646;51.910;7.724;2023-04-01T00:37:36;98695.88;;;9.84;100.00
39265;BME280;42646;51.910;7.724;2023-04-01T00:40:07;98690.00;;;9.74;100.00
39265;BME280;42646;51.910;7.724;2023-04-01T00:42:37;98694.13;;;9.76;100.00
39265;BME280;42646;51.910;7.724;2023-04-01T00:45:27;98691.84;;;9.73;100.00
39265;BME280;42646;51.910;7.724;2023-04-01T00:47:56;98695.47;;;9.72;100.00
39265;BME280;42646;51.910;7.724;2023-04-01T00:50:28;98688.72;;;9.70;100.00
39265;BME280;42646;51.910;7.724;2023-04-01T00:52:58;98682.69;;;9.76;100.00
39265;BME280;42646;51.910;7.724;2023-04-01T00:55:29;98683.59;;;9.68;100.00
39265;BME280;42646;51.910;7.724;2023-04-01T00:57:59;98676.91;;;9.72;100.00
39265;BME280;42646;51.910;7.724;2023-04-01T01:00:28;98685.06;;;9.71;100.00
39265;BME280;42646;51.910;7.724;2023-04-01T01:02:57;98684.22;;;9.70;100.00
39265;BME280;42646;51.910;7.724;2023-04-01T01:05:38;98680.41;;;9.73;100.00
39265;BME280;42646;51.910;7.724;2023-04-01T01:08:22;98685.25;;;9.69;100.00
39265;BME280;42646;51.910;7.724;2023-04-01T01:10:55;98681.75;;;9.69;100.00
39265;BME280;42646;51.910;7.724;2023-04-01T01:13:29;98676.25;;;9.70;100.00
39265;BME280;42646;51.910;7.724;2023-04-01T01:16:06;98676.06;;;9.72;100.00
39265;BME280;42646;51.910;7.724;2023-04-01T01:18:41;98678.91;;;9.70;100.00
39265;BME280;42646;51.910;7.724;2023-04-01T01:21:30;98681.22;;;9.73;100.00
39265;BME280;42646;51.910;7.724;2023-04-01T01:24:13;98680.22;;;9.74;100.00
39265;BME280;42646;51.910;7.724;2023-04-01T01:26:59;98680.22;;;9.74;100.00
39265;BME280;42646;51.910;7.724;2023-04-01T01:29:53;98674.44;;;9.71;100.00
39265;BME280;42646;51.910;7.724;2023-04-01T01:32:33;98679.41;;;9.74;100.00
39265;BME280;42646;51.910;7.724;2023-04-01T01:35:18;98674.25;;;9.72;100.00
39265;BME280;42646;51.910;7.724;2023-04-01T01:37:51;98671.34;;;9.67;100.00
39265;BME280;42646;51.910;7.724;2023-04-01T01:40:22;98675.25;;;9.71;100.00
39265;BME280;42646;51.910;7.724;2023-04-01T01:42:55;98671.69;;;9.64;100.00
39265;BME280;42646;51.910;7.724;2023-04-01T01:45:31;98674.00;;;9.67;100.00
39265;BME280;42646;51.910;7.724;2023-04-01T01:48:02;98672.97;;;9.68;100.00
39265;BME280;42646;51.910;7.724;2023-04-01T01:50:58;98674.97;;;9.66;100.00
39265;BME280;42646;51.910;7.724;2023-04-01T01:53:27;98676.66;;;9.67;100.00
39265;BME280;42646;51.910;7.724;2023-04-01T01:55:54;98665.75;;;9.62;100.00
39265;BME280;42646;51.910;7.724;2023-04-01T01:58:24;98675.69;;;9.60;100.00
39265;BME280;42646;51.910;7.724;2023-04-01T02:00:55;98671.03;;;9.62;100.00
39265;BME280;42646;51.910;7.724;2023-04-01T02:03:25;98675.16;;;9.64;100.00
39265;BME280;42646;51.910;7.724;2023-04-01T02:05:56;98672.50;;;9.64;100.00
39265;BME280;42646;51.910;7.724;2023-04-01T02:08:31;98678.81;;;9.63;100.00
39265;BME280;42646;51.910;7.724;2023-04-01T02:11:05;98679.00;;;9.62;100.00
39265;BME280;42646;51.910;7.724;2023-04-01T02:13:42;98675.81;;;9.67;100.00
39265;BME280;42646;51.910;7.724;2023-04-01T02:16:13;98673.50;;;9.63;100.00
39265;BME280;42646;51.910;7.724;2023-04-01T02:18:44;98672.16;;;9.68;100.00
39265;BME280;42646;51.910;7.724;2023-04-01T02:21:13;98679.28;;;9.67;100.00
39265;BME280;42646;51.910;7.724;2023-04-01T02:23:46;98672.06;;;9.61;100.00
39265;BME280;42646;51.910;7.724;2023-04-01T02:26:15;98675.53;;;9.61;100.00
39265;BME280;42646;51.910;7.724;2023-04-01T02:28:45;98681.47;;;9.63;100.00
39265;BME280;42646;51.910;7.724;2023-04-01T02:31:14;98682.00;;;9.59;100.00
39265;BME280;42646;51.910;7.724;2023-04-01T02:34:08;98681.00;;;9.60;100.00
39265;BME280;42646;51.910;7.724;2023-04-01T02:36:37;98672.22;;;9.59;100.00
39265;BME280;42646;51.910;7.724;2023-04-01T02:39:07;98677.53;;;9.59;100.00
39265;BME280;42646;51.910;7.724;2023-04-01T02:41:41;98682.50;;;9.62;100.00
39265;BME280;42646;51.910;7.724;2023-04-01T02:44:09;98674.03;;;9.59;100.00
39265;BME280;42646;51.910;7.724;2023-04-01T02:46:38;98672.22;;;9.59;100.00
39265;BME280;42646;51.910;7.724;2023-04-01T02:49:06;98667.56;;;9.61;100.00
39265;BME280;42646;51.910;7.724;2023-04-01T02:51:59;98662.41;;;9.60;100.00
39265;BME280;42646;51.910;7.724;2023-04-01T02:54:28;98665.25;;;9.58;100.00
39265;BME280;42646;51.910;7.724;2023-04-01T02:56:56;98663.63;;;9.57;100.00
39265;BME280;42646;51.910;7.724;2023-04-01T02:59:24;98667.28;;;9.56;100.00
39265;BME280;42646;51.910;7.724;2023-04-01T03:01:52;98660.06;;;9.65;100.00
39265;BME280;42646;51.910;7.724;2023-04-01T03:04:20;98661.78;;;9.58;100.00
39265;BME280;42646;51.910;7.724;2023-04-01T03:06:48;98661.16;;;9.56;100.00
39265;BME280;42646;51.910;7.724;2023-04-01T03:09:16;98672.59;;;9.56;100.00
39265;BME280;42646;51.910;7.724;2023-04-01T03:11:45;98668.81;;;9.51;100.00
39265;BME280;42646;51.910;7.724;2023-04-01T03:14:12;98668.44;;;9.54;100.00
39265;BME280;42646;51.910;7.724;2023-04-01T03:16:41;98668.44;;;9.54;100.00
39265;BME280;42646;51.910;7.724;2023-04-01T03:19:09;98669.84;;;9.50;100.00
39265;BME280;42646;51.910;7.724;2023-04-01T03:21:37;98665.34;;;9.50;100.00
39265;BME280;42646;51.910;7.724;2023-04-01T03:24:07;98667.91;;;9.44;100.00
39265;BME280;42646;51.910;7.724;2023-04-01T03:26:35;98672.00;;;9.46;100.00
39265;BME280;42646;51.910;7.724;2023-04-01T03:29:04;98668.19;;;9.49;100.00
39265;BME280;42646;51.910;7.724;2023-04-01T03:31:31;98679.63;;;9.49;100.00
39265;BME280;42646;51.910;7.724;2023-04-01T03:34:01;98674.31;;;9.49;100.00
39265;BME280;42646;51.910;7.724;2023-04-01T03:36:29;98683.97;;;9.42;100.00
39265;BME280;42646;51.910;7.724;2023-04-01T03:38:56;98686.63;;;9.42;100.00
39265;BME280;42646;51.910;7.724;2023-04-01T03:41:35;98693.44;;;9.59;100.00
39265;BME280;42646;51.910;7.724;2023-04-01T03:44:04;98687.84;;;9.54;100.00
39265;BME280;42646;51.910;7.724;2023-04-01T03:46:33;98693.78;;;9.42;100.00
39265;BME280;42646;51.910;7.724;2023-04-01T03:49:01;98690.31;;;9.41;100.00
39265;BME280;42646;51.910;7.724;2023-04-01T03:51:54;98694.44;;;9.44;100.00
39265;BME280;42646;51.910;7.724;2023-04-01T03:54:21;98685.47;;;9.45;100.00
39265;BME280;42646;51.910;7.724;2023-04-01T03:56:49;98685.00;;;9.41;100.00
39265;BME280;42646;51.910;7.724;2023-04-01T03:59:19;98691.13;;;9.42;100.00
39265;BME280;42646;51.910;7.724;2023-04-01T04:01:48;98690.31;;;9.41;100.00
39265;BME280;42646;51.910;7.724;2023-04-01T04:04:15;98692.31;;;9.39;100.00
39265;BME280;42646;51.910;7.724;2023-04-01T04:06:45;98699.38;;;9.47;100.00
39265;BME280;42646;51.910;7.724;2023-04-01T04:09:18;98696.53;;;9.48;100.00
39265;BME280;42646;51.910;7.724;2023-04-01T04:11:46;98697.44;;;9.41;100.00
39265;BME280;42646;51.910;7.724;2023-04-01T04:14:13;98694.44;;;9.44;100.00
39265;BME280;42646;51.910;7.724;2023-04-01T04:16:42;98703.38;;;9.43;100.00
39265;BME280;42646;51.910;7.724;2023-04-01T04:19:12;98709.06;;;9.40;100.00
39265;BME280;42646;51.910;7.724;2023-04-01T04:21:40;98710.38;;;9.44;100.00
39265;BME280;42646;51.910;7.724;2023-04-01T04:24:09;98702.94;;;9.39;100.00
39265;BME280;42646;51.910;7.724;2023-04-01T04:26:56;98707.03;;;9.42;100.00
39265;BME280;42646;51.910;7.724;2023-04-01T04:29:24;98709.06;;;9.40;100.00
39265;BME280;42646;51.910;7.724;2023-04-01T04:31:54;98713.03;;;9.44;100.00
39265;BME280;42646;51.910;7.724;2023-04-01T04:34:23;98722.97;;;9.42;100.00
39265;BME280;42646;51.910;7.724;2023-04-01T04:36:55;98714.38;;;9.40;100.00
39265;BME280;42646;51.910;7.724;2023-04-01T04:39:27;98712.53;;;9.40;100.00
39265;BME280;42646;51.910;7.724;2023-04-01T04:41:55;98721.97;;;9.43;100.00
39265;BME280;42646;51.910;7.724;2023-04-01T04:44:25;98717.97;;;9.47;100.00
39265;BME280;42646;51.910;7.724;2023-04-01T04:46:55;98721.81;;;9.44;100.00
39265;BME280;42646;51.910;7.724;2023-04-01T04:49:24;98716.66;;;9.43;100.00
39265;BME280;42646;51.910;7.724;2023-04-01T04:51:51;98730.09;;;9.41;100.00
39265;BME280;42646;51.910;7.724;2023-04-01T04:54:23;98725.81;;;9.40;100.00
39265;BME280;42646;51.910;7.724;2023-04-01T04:56:57;98732.13;;;9.39;100.00
39265;BME280;42646;51.910;7.724;2023-04-01T04:59:27;98726.63;;;9.41;100.00
39265;BME280;42646;51.910;7.724;2023-04-01T05:02:07;98732.31;;;9.38;100.00
39265;BME280;42646;51.910;7.724;2023-04-01T05:04:36;98732.47;;;9.36;100.00
39265;BME280;42646;51.910;7.724;2023-04-01T05:07:10;98736.78;;;9.37;100.00
39265;BME280;42646;51.910;7.724;2023-04-01T05:09:37;98732.47;;;9.36;100.00
39265;BME280;42646;51.910;7.724;2023-04-01T05:12:05;98744.91;;;9.35;100.00
39265;BME280;42646;51.910;7.724;2023-04-01T05:14:52;98737.97;;;9.34;100.00
39265;BME280;42646;51.910;7.724;2023-04-01T05:17:21;98743.19;;;9.43;100.00
39265;BME280;42646;51.910;7.724;2023-04-01T05:19:49;98746.75;;;9.35;100.00
39265;BME280;42646;51.910;7.724;2023-04-01T05:22:18;98748.75;;;9.33;100.00
39265;BME280;42646;51.910;7.724;2023-04-01T05:24:47;98743.91;;;9.36;100.00
39265;BME280;42646;51.910;7.724;2023-04-01T05:27:18;98745.09;;;9.34;100.00
39265;BME280;42646;51.910;7.724;2023-04-01T05:29:46;98751.22;;;9.34;100.00
39265;BME280;42646;51.910;7.724;2023-04-01T05:32:33;98751.22;;;9.34;100.00
39265;BME280;42646;51.910;7.724;2023-04-01T05:35:06;98758.84;;;9.38;100.00
39265;BME280;42646;51.910;7.724;2023-04-01T05:37:34;98751.88;;;9.36;100.00
39265;BME280;42646;51.910;7.724;2023-04-01T05:40:04;98750.69;;;9.39;100.00
39265;BME280;42646;51.910;7.724;2023-04-01T05:42:33;98756.84;;;9.40;100.00
39265;BME280;42646;51.910;7.724;2023-04-01T05:45:05;98752.97;;;9.42;100.00
39265;BME280;42646;51.910;7.724;2023-04-01T05:48:00;98761.84;;;9.34;100.00
39265;BME280;42646;51.910;7.724;2023-04-01T05:50:33;98759.81;;;9.36;100.00
39265;BME280;42646;51.910;7.724;2023-04-01T05:53:01;98761.84;;;9.34;100.00
39265;BME280;42646;51.910;7.724;2023-04-01T05:55:29;98767.63;;;9.38;100.00
39265;BME280;42646;51.910;7.724;2023-04-01T05:57:59;98765.81;;;9.39;100.00
39265;BME280;42646;51.910;7.724;2023-04-01T06:00:27;98770.28;;;9.38;100.00
39265;BME280;42646;51.910;7.724;2023-04-01T06:02:58;98765.81;;;9.39;100.00
39265;BME280;42646;51.910;7.724;2023-04-01T06:05:29;98776.16;;;9.48;100.00
39265;BME280;42646;51.910;7.724;2023-04-01T06:08:01;98771.56;;;9.42;100.00
39265;BME280;42646;51.910;7.724;2023-04-01T06:10:43;98771.94;;;9.39;100.00
39265;BME280;42646;51.910;7.724;2023-04-01T06:13:21;98771.13;;;9.39;100.00
39265;BME280;42646;51.910;7.724;2023-04-01T06:15:59;98778.88;;;9.40;100.00
39265;BME280;42646;51.910;7.724;2023-04-01T06:18:49;98777.88;;;9.41;100.00
39265;BME280;42646;51.910;7.724;2023-04-01T06:21:33;98779.81;;;9.47;100.00
39265;BME280;42646;51.910;7.724;2023-04-01T06:24:27;98784.31;;;9.47;100.00
39265;BME280;42646;51.910;7.724;2023-04-01T06:27:04;98788.59;;;9.48;100.00
39265;BME280;42646;51.910;7.724;2023-04-01T06:29:50;98793.56;;;9.51;100.00
39265;BME280;42646;51.910;7.724;2023-04-01T06:36:23;98794.31;;;9.59;100.00
39265;BME280;42646;51.910;7.724;2023-04-01T06:39:06;98794.69;;;9.56;100.00
39265;BME280;42646;51.910;7.724;2023-04-01T06:42:04;98795.34;;;9.58;100.00
39265;BME280;42646;51.910;7.724;2023-04-01T06:44:47;98797.66;;;9.61;100.00
39265;BME280;42646;51.910;7.724;2023-04-01T06:47:47;98804.09;;;9.67;100.00
39265;BME280;42646;51.910;7.724;2023-04-01T06:50:44;98801.44;;;9.67;100.00
39265;BME280;42646;51.910;7.724;2023-04-01T06:54:04;98805.19;;;9.73;100.00
39265;BME280;42646;51.910;7.724;2023-04-01T06:56:55;98802.00;;;9.77;100.00
39265;BME280;42646;51.910;7.724;2023-04-01T06:59:28;98808.59;;;9.81;100.00
39265;BME280;42646;51.910;7.724;2023-04-01T07:01:59;98808.91;;;9.86;100.00
39265;BME280;42646;51.910;7.724;2023-04-01T07:04:30;98808.53;;;9.89;100.00
39265;BME280;42646;51.910;7.724;2023-04-01T07:07:01;98810.66;;;9.94;100.00
39265;BME280;42646;51.910;7.724;2023-04-01T07:09:37;98813.25;;;10.02;100.00
39265;BME280;42646;51.910;7.724;2023-04-01T07:12:46;98817.66;;;10.10;100.00
39265;BME280;42646;51.910;7.724;2023-04-01T07:16:07;98811.13;;;10.12;100.00
39265;BME280;42646;51.910;7.724;2023-04-01T07:18:42;98816.94;;;10.16;100.00
39265;BME280;42646;51.910;7.724;2023-04-01T07:21:22;98825.91;;;10.15;100.00
39265;BME280;42646;51.910;7.724;2023-04-01T07:23:54;98822.34;;;10.23;100.00
39265;BME280;42646;51.910;7.724;2023-04-01T07:26:39;98829.34;;;10.24;100.00
39265;BME280;42646;51.910;7.724;2023-04-01T07:29:11;98829.63;;;10.29;100.00
39265;BME280;42646;51.910;7.724;2023-04-01T07:32:07;98836.13;;;10.26;100.00
39265;BME280;42646;51.910;7.724;2023-04-01T07:34:43;98834.66;;;10.24;100.00
39265;BME280;42646;51.910;7.724;2023-04-01T07:37:19;98829.00;;;10.27;100.00
39265;BME280;42646;51.910;7.724;2023-04-01T07:40:23;98832.97;;;10.23;100.00
39265;BME280;42646;51.910;7.724;2023-04-01T07:43:08;98838.13;;;10.24;100.00
39265;BME280;42646;51.910;7.724;2023-04-01T07:45:55;98841.91;;;10.30;100.00
39265;BME280;42646;51.910;7.724;2023-04-01T07:48:31;98841.91;;;10.30;100.00
39265;BME280;42646;51.910;7.724;2023-04-01T07:51:08;98848.50;;;10.34;100.00
39265;BME280;42646;51.910;7.724;2023-04-01T07:53:46;98851.81;;;10.36;100.00
39265;BME280;42646;51.910;7.724;2023-04-01T07:56:20;98848.13;;;10.37;100.00
39265;BME280;42646;51.910;7.724;2023-04-01T07:59:00;98855.94;;;10.38;100.00
39265;BME280;42646;51.910;7.724;2023-04-01T08:02:06;98853.63;;;10.35;100.00
39265;BME280;42646;51.910;7.724;2023-04-01T08:04:46;98860.44;;;10.38;100.00
39265;BME280;42646;51.910;7.724;2023-04-01T08:07:21;98863.94;;;10.38;100.00
39265;BME280;42646;51.910;7.724;2023-04-01T08:10:14;98862.91;;;10.39;100.00
39265;BME280;42646;51.910;7.724;2023-04-01T08:13:10;98867.84;;;10.42;100.00
39265;BME280;42646;51.910;7.724;2023-04-01T08:16:17;98873.94;;;10.51;100.00
39265;BME280;42646;51.910;7.724;2023-04-01T08:18:58;98875.38;;;10.54;100.00
39265;BME280;42646;51.910;7.724;2023-04-01T08:21:32;98878.06;;;10.54;100.00
39265;BME280;42646;51.910;7.724;2023-04-01T08:24:11;98877.69;;;10.57;100.00
39265;BME280;42646;51.910;7.724;2023-04-01T08:26:49;98876.78;;;10.64;100.00
39265;BME280;42646;51.910;7.724;2023-04-01T08:29:21;98882.38;;;10.69;100.00
39265;BME280;42646;51.910;7.724;2023-04-01T08:31:56;98881.91;;;10.66;100.00
39265;BME280;42646;51.910;7.724;2023-04-01T08:34:30;98880.34;;;10.72;100.00
39265;BME280;42646;51.910;7.724;2023-04-01T08:37:04;98891.72;;;10.65;100.00
39265;BME280;42646;51.910;7.724;2023-04-01T08:39:37;98890.91;;;10.65;100.00
39265;BME280;42646;51.910;7.724;2023-04-01T08:45:25;98899.69;;;10.65;100.00
39265;BME280;42646;51.910;7.724;2023-04-01T08:48:28;98901.63;;;10.72;100.00
39265;BME280;42646;51.910;7.724;2023-04-01T08:51:14;98895.69;;;10.69;100.00
39265;BME280;42646;51.910;7.724;2023-04-01T08:53:58;98902.66;;;10.70;100.00
39265;BME280;42646;51.910;7.724;2023-04-01T08:56:33;98907.13;;;10.70;100.00
39265;BME280;42646;51.910;7.724;2023-04-01T09:02:47;98915.41;;;10.75;100.00
39265;BME280;42646;51.910;7.724;2023-04-01T09:08:36;98922.47;;;10.83;100.00
39265;BME280;42646;51.910;7.724;2023-04-01T09:11:18;98914.97;;;10.86;100.00
39265;BME280;42646;51.910;7.724;2023-04-01T09:14:11;98907.97;;;11.00;100.00
39265;BME280;42646;51.910;7.724;2023-04-01T09:17:25;98921.44;;;10.84;100.00
39265;BME280;42646;51.910;7.724;2023-04-01T09:20:17;98919.81;;;10.83;100.00
39265;BME280;42646;51.910;7.724;2023-04-01T09:22:59;98925.94;;;10.83;100.00
39265;BME280;42646;51.910;7.724;2023-04-01T09:25:45;98927.25;;;10.87;100.00
39265;BME280;42646;51.910;7.724;2023-04-01T09:28:20;98930.91;;;10.86;100.00
39265;BME280;42646;51.910;7.724;2023-04-01T09:31:14;98932.81;;;10.78;100.00
39265;BME280;42646;51.910;7.724;2023-04-01T09:34:25;98930.16;;;10.78;100.00
39265;BME280;42646;51.910;7.724;2023-04-01T09:37:13;98936.97;;;10.80;100.00
39265;BME280;42646;51.910;7.724;2023-04-01T09:39:59;98941.72;;;10.85;100.00
39265;BME280;42646;51.910;7.724;2023-04-01T09:42:42;98945.41;;;10.84;100.00
39265;BME280;42646;51.910;7.724;2023-04-01T09:45:37;98937.06;;;10.87;100.00
39265;BME280;42646;51.910;7.724;2023-04-01T09:48:16;98944.50;;;10.91;100.00
39265;BME280;42646;51.910;7.724;2023-04-01T09:50:54;98937.72;;;11.04;100.00
39265;BME280;42646;51.910;7.724;2023-04-01T09:53:43;98944.94;;;10.95;100.00
39265;BME280;42646;51.910;7.724;2023-04-01T09:56:42;98954.13;;;10.92;100.00
39265;BME280;42646;51.910;7.724;2023-04-01T09:59:47;98951.09;;;10.81;100.00
39265;BME280;42646;51.910;7.724;2023-04-01T10:03:26;98956.69;;;10.86;100.00
39265;BME280;42646;51.910;7.724;2023-04-01T10:12:55;98966.41;;;11.08;100.00
39265;BME280;42646;51.910;7.724;2023-04-01T10:15:55;98961.81;;;11.02;100.00
39265;BME280;42646;51.910;7.724;2023-04-01T10:19:07;98964.69;;;11.01;100.00
39265;BME280;42646;51.910;7.724;2023-04-01T10:21:57;98967.97;;;11.03;100.00
39265;BME280;42646;51.910;7.724;2023-04-01T10:28:12;98976.06;;;11.09;100.00
39265;BME280;42646;51.910;7.724;2023-04-01T10:31:29;98977.19;;;11.15;100.00
39265;BME280;42646;51.910;7.724;2023-04-01T10:34:39;98976.59;;;11.19;100.00
39265;BME280;42646;51.910;7.724;2023-04-01T10:37:33;98970.00;;;11.30;100.00
39265;BME280;42646;51.910;7.724;2023-04-01T10:40:36;98968.56;;;11.28;100.00
39265;BME280;42646;51.910;7.724;2023-04-01T10:46:27;98971.31;;;11.34;100.00
39265;BME280;42646;51.910;7.724;2023-04-01T10:49:26;98973.75;;;11.36;100.00
39265;BME280;42646;51.910;7.724;2023-04-01T10:52:22;98968.63;;;11.34;100.00
39265;BME280;42646;51.910;7.724;2023-04-01T10:58:50;98978.00;;;11.45;100.00
39265;BME280;42646;51.910;7.724;2023-04-01T11:01:58;98979.19;;;11.42;100.00
39265;BME280;42646;51.910;7.724;2023-04-01T11:21:22;98990.22;;;11.39;100.00
39265;BME280;42646;51.910;7.724;2023-04-01T11:24:03;98990.50;;;11.44;100.00
39265;BME280;42646;51.910;7.724;2023-04-01T11:26:52;98994.13;;;11.43;100.00
39265;BME280;42646;51.910;7.724;2023-04-01T11:29:56;98995.63;;;11.46;100.00
39265;BME280;42646;51.910;7.724;2023-04-01T11:32:43;99000.41;;;11.50;100.00
39265;BME280;42646;51.910;7.724;2023-04-01T11:35:36;98997.53;;;11.52;100.00
39265;BME280;42646;51.910;7.724;2023-04-01T11:38:17;99007.25;;;11.60;100.00
39265;BME280;42646;51.910;7.724;2023-04-01T11:41:19;99002.47;;;11.55;100.00
39265;BME280;42646;51.910;7.724;2023-04-01T11:44:16;99007.25;;;11.60;100.00
39265;BME280;42646;51.910;7.724;2023-04-01T11:47:18;99011.19;;;11.78;100.00
39265;BME280;42646;51.910;7.724;2023-04-01T11:49:56;99005.34;;;11.68;100.00
39265;BME280;42646;51.910;7.724;2023-04-01T11:52:50;99015.81;;;11.70;100.00
39265;BME280;42646;51.910;7.724;2023-04-01T11:55:23;99013.94;;;11.85;100.00
39265;BME280;42646;51.910;7.724;2023-04-01T11:58:20;99022.50;;;11.81;100.00
39265;BME280;42646;51.910;7.724;2023-04-01T12:01:07;99028.50;;;11.83;100.00
39265;BME280;42646;51.910;7.724;2023-04-01T12:03:57;99026.28;;;11.86;100.00
39265;BME280;42646;51.910;7.724;2023-04-01T12:06:34;99031.69;;;11.93;100.00
39265;BME280;42646;51.910;7.724;2023-04-01T12:09:12;99035.63;;;11.97;100.00
39265;BME280;42646;51.910;7.724;2023-04-01T12:11:51;99035.69;;;12.03;100.00
39265;BME280;42646;51.910;7.724;2023-04-01T12:14:30;99040.84;;;12.05;100.00
39265;BME280;42646;51.910;7.724;2023-04-01T12:17:19;99039.44;;;12.09;100.00
39265;BME280;42646;51.910;7.724;2023-04-01T12:19:58;99048.72;;;12.13;100.00
39265;BME280;42646;51.910;7.724;2023-04-01T12:22:40;99048.38;;;12.16;100.00
39265;BME280;42646;51.910;7.724;2023-04-01T12:25:29;99053.03;;;12.14;100.00
39265;BME280;42646;51.910;7.724;2023-04-01T12:28:15;99055.09;;;12.12;100.00
39265;BME280;42646;51.910;7.724;2023-04-01T12:30:58;99051.88;;;12.17;100.00
39265;BME280;42646;51.910;7.724;2023-04-01T12:36:37;99058.72;;;12.26;100.00
39265;BME280;42646;51.910;7.724;2023-04-01T12:39:22;99069.66;;;12.31;100.00
39265;BME280;42646;51.910;7.724;2023-04-01T12:42:10;99066.63;;;12.34;100.00
39265;BME280;42646;51.910;7.724;2023-04-01T12:44:56;99073.22;;;12.38;100.00
39265;BME280;42646;51.910;7.724;2023-04-01T12:47:43;99075.06;;;12.38;100.00
39265;BME280;42646;51.910;7.724;2023-04-01T12:50:27;99077.72;;;12.38;100.00
39265;BME280;42646;51.910;7.724;2023-04-01T12:53:13;99083.44;;;12.35;100.00
39265;BME280;42646;51.910;7.724;2023-04-01T12:55:48;99080.72;;;12.28;100.00
39265;BME280;42646;51.910;7.724;2023-04-01T12:58:54;99088.44;;;12.23;100.00
39265;BME280;42646;51.910;7.724;2023-04-01T13:01:47;99082.22;;;12.16;100.00
39265;BME280;42646;51.910;7.724;2023-04-01T13:04:38;99086.59;;;12.09;100.00
39265;BME280;42646;51.910;7.724;2023-04-01T13:10:12;99100.50;;;12.04;100.00
39265;BME280;42646;51.910;7.724;2023-04-01T13:13:00;99099.03;;;12.01;100.00
39265;BME280;42646;51.910;7.724;2023-04-01T13:15:37;99114.41;;;11.99;100.00
39265;BME280;42646;51.910;7.724;2023-04-01T13:18:20;99104.91;;;11.97;100.00
39265;BME280;42646;51.910;7.724;2023-04-01T13:21:28;99115.13;;;11.93;100.00
39265;BME280;42646;51.910;7.724;2023-04-01T13:24:04;99124.16;;;11.92;100.00
39265;BME280;42646;51.910;7.724;2023-04-01T13:26:43;99126.63;;;11.94;100.00
39265;BME280;42646;51.910;7.724;2023-04-01T13:29:23;99125.78;;;11.93;100.00
39265;BME280;42646;51.910;7.724;2023-04-01T13:32:09;99129.09;;;11.95;100.00
39265;BME280;42646;51.910;7.724;2023-04-01T13:34:51;99127.25;;;11.96;100.00
39265;BME280;42646;51.910;7.724;2023-04-01T13:37:36;99126.22;;;11.97;100.00
39265;BME280;42646;51.910;7.724;2023-04-01T13:40:32;99131.75;;;11.95;100.00
39265;BME280;42646;51.910;7.724;2023-04-01T13:43:07;99131.56;;;11.97;100.00
39265;BME280;42646;51.910;7.724;2023-04-01T13:45:46;99138.56;;;11.98;100.00
39265;BME280;42646;51.910;7.724;2023-04-01T13:48:34;99139.41;;;11.98;100.00
39265;BME280;42646;51.910;7.724;2023-04-01T13:51:48;99147.84;;;12.02;100.00
39265;BME280;42646;51.910;7.724;2023-04-01T13:57:52;99146.66;;;12.05;100.00
39265;BME280;42646;51.910;7.724;2023-04-01T14:00:36;99142.97;;;12.06;100.00
39265;BME280;42646;51.910;7.724;2023-04-01T14:03:26;99147.91;;;12.09;100.00
39265;BME280;42646;51.910;7.724;2023-04-01T14:06:04;99152.06;;;12.11;100.00
39265;BME280;42646;51.910;7.724;2023-04-01T14:08:44;99157.69;;;12.16;100.00
39265;BME280;42646;51.910;7.724;2023-04-01T14:11:19;99159.94;;;12.19;100.00
39265;BME280;42646;51.910;7.724;2023-04-01T14:13:59;99164.94;;;12.22;100.00
39265;BME280;42646;51.910;7.724;2023-04-01T14:16:48;99168.03;;;12.26;100.00
39265;BME280;42646;51.910;7.724;2023-04-01T14:19:32;99166.19;;;12.26;100.00
39265;BME280;42646;51.910;7.724;2023-04-01T14:22:13;99168.69;;;12.28;100.00
39265;BME280;42646;51.910;7.724;2023-04-01T14:25:03;99173.00;;;12.29;100.00
39265;BME280;42646;51.910;7.724;2023-04-01T14:27:54;99174.03;;;12.28;100.00
39265;BME280;42646;51.910;7.724;2023-04-01T14:30:34;99173.66;;;12.31;100.00
39265;BME280;42646;51.910;7.724;2023-04-01T14:33:16;99174.09;;;12.35;100.00
39265;BME280;42646;51.910;7.724;2023-04-01T14:35:56;99183.38;;;12.39;100.00
39265;BME280;42646;51.910;7.724;2023-04-01T14:38:46;99190.00;;;12.43;100.00
39265;BME280;42646;51.910;7.724;2023-04-01T14:41:26;99189.63;;;12.46;100.00
39265;BME280;42646;51.910;7.724;2023-04-01T14:44:16;99194.78;;;12.47;100.00
39265;BME280;42646;51.910;7.724;2023-04-01T14:47:14;99193.75;;;12.48;100.00
39265;BME280;42646;51.910;7.724;2023-04-01T14:49:46;99200.13;;;12.47;100.00
39265;BME280;42646;51.910;7.724;2023-04-01T14:52:21;99209.75;;;12.48;100.00
39265;BME280;42646;51.910;7.724;2023-04-01T14:54:50;99213.25;;;12.49;100.00
39265;BME280;42646;51.910;7.724;2023-04-01T14:57:25;99215.94;;;12.49;100.00